<?xml version="1.0" encoding="UTF-8" standalone="no" ?>
<gpx xmlns="http://www.topografix.com/GPX/1/1" xmlns:xsi="http://www.w3.org/2001/XMLSchema-instance" xsi:schemaLocation="http://www.topografix.com/GPX/1/1 http://www.topografix.com/GPX/1/1/gpx.xsd" version="1.1" creator="VisuGPX - https://www.visugpx.com">
  <metadata>
    <name>AVF-1- 11- 2013 - Draguignan-Le Malmont-Figanières-Voie Romaine</name>
    <desc><![CDATA[Draguignan-Le Malmont-Figanières-Voie Romaine]]></desc>
  </metadata>
  <trk>
    <name><![CDATA[malmo]]></name>
    <desc><![CDATA[<h1>OruxMaps</h1><br /><hr align="center" width="480" style="height: 2px; width: 517px"/><h2>Nom: malmo</h2><br /><p>Temps de départ: 11/01/2013 13:45</p><p>Temps d'arrivée: 11/01/2013 16:25</p><p>Distance: 7,6 km (02:07)</p><p>Temps déplacement: 01:48</p><p>Vitesse moyenne: 3,6 km/h</p><p>Vitesse moyenne: 4,2 km/h</p><p>Vitess Max.: 7,4 km/h</p><p>Altitude minimale: 372 m</p><p>Altitude maximale: 520 m</p><p>Vitesse d'élévation: 328 m/h</p><p>Vitesse de descente: -235,1 m/h</p><p>Gain Altitude: 201 m</p><p>Perte Altitude: -154 m</p><p>Temps d'élévation: 00:36</p><p>Temps de descente: 00:39</p><hr align="center" width="480" style="height: 2px; width: 517px"/>]]></desc>
    <trkseg>
      <trkpt lat="43.55852" lon="6.46688">
        <ele>399.85</ele>
        <time>2013-11-01T12:45:32Z</time>
      </trkpt>
      <trkpt lat="43.55869" lon="6.46673">
        <ele>463.29</ele>
        <time>2013-11-01T12:45:45Z</time>
      </trkpt>
      <trkpt lat="43.55887" lon="6.46663">
        <ele>465.47</ele>
        <time>2013-11-01T12:46:08Z</time>
      </trkpt>
      <trkpt lat="43.55897" lon="6.4664">
        <ele>470.98</ele>
        <time>2013-11-01T12:46:26Z</time>
      </trkpt>
      <trkpt lat="43.55914" lon="6.46634">
        <ele>476.94</ele>
        <time>2013-11-01T12:46:42Z</time>
      </trkpt>
      <trkpt lat="43.55924" lon="6.46631">
        <ele>479.7</ele>
        <time>2013-11-01T12:46:51Z</time>
      </trkpt>
      <trkpt lat="43.55943" lon="6.46626">
        <ele>482.57</ele>
        <time>2013-11-01T12:47:07Z</time>
      </trkpt>
      <trkpt lat="43.55962" lon="6.4662">
        <ele>485.03</ele>
        <time>2013-11-01T12:47:25Z</time>
      </trkpt>
      <trkpt lat="43.55978" lon="6.46609">
        <ele>486.63</ele>
        <time>2013-11-01T12:47:39Z</time>
      </trkpt>
      <trkpt lat="43.55994" lon="6.46592">
        <ele>488.07</ele>
        <time>2013-11-01T12:47:57Z</time>
      </trkpt>
      <trkpt lat="43.56007" lon="6.46573">
        <ele>488.68</ele>
        <time>2013-11-01T12:48:11Z</time>
      </trkpt>
      <trkpt lat="43.56021" lon="6.46556">
        <ele>488.69</ele>
        <time>2013-11-01T12:48:27Z</time>
      </trkpt>
      <trkpt lat="43.56035" lon="6.46538">
        <ele>488.68</ele>
        <time>2013-11-01T12:48:43Z</time>
      </trkpt>
      <trkpt lat="43.56054" lon="6.46527">
        <ele>488.94</ele>
        <time>2013-11-01T12:49:05Z</time>
      </trkpt>
      <trkpt lat="43.56072" lon="6.46537">
        <ele>486.9</ele>
        <time>2013-11-01T12:49:21Z</time>
      </trkpt>
      <trkpt lat="43.56083" lon="6.46558">
        <ele>485.59</ele>
        <time>2013-11-01T12:49:41Z</time>
      </trkpt>
      <trkpt lat="43.56083" lon="6.46558">
        <ele>485.59</ele>
        <time>2013-11-01T12:49:41Z</time>
      </trkpt>
      <trkpt lat="43.56098" lon="6.46577">
        <ele>486.34</ele>
        <time>2013-11-01T12:50:01Z</time>
      </trkpt>
      <trkpt lat="43.56114" lon="6.46592">
        <ele>488.15</ele>
        <time>2013-11-01T12:50:19Z</time>
      </trkpt>
      <trkpt lat="43.5613" lon="6.46608">
        <ele>489.37</ele>
        <time>2013-11-01T12:50:37Z</time>
      </trkpt>
      <trkpt lat="43.56145" lon="6.46622">
        <ele>491.32</ele>
        <time>2013-11-01T12:50:59Z</time>
      </trkpt>
      <trkpt lat="43.56154" lon="6.46648">
        <ele>492.92</ele>
        <time>2013-11-01T12:51:17Z</time>
      </trkpt>
      <trkpt lat="43.56158" lon="6.46673">
        <ele>493.88</ele>
        <time>2013-11-01T12:51:35Z</time>
      </trkpt>
      <trkpt lat="43.5616" lon="6.46688">
        <ele>493.92</ele>
        <time>2013-11-01T12:52:19Z</time>
      </trkpt>
      <trkpt lat="43.56156" lon="6.46662">
        <ele>495.17</ele>
        <time>2013-11-01T12:52:33Z</time>
      </trkpt>
      <trkpt lat="43.56152" lon="6.46637">
        <ele>496.01</ele>
        <time>2013-11-01T12:52:47Z</time>
      </trkpt>
      <trkpt lat="43.56152" lon="6.46637">
        <ele>496.01</ele>
        <time>2013-11-01T12:52:47Z</time>
      </trkpt>
      <trkpt lat="43.56154" lon="6.46612">
        <ele>497.24</ele>
        <time>2013-11-01T12:53:07Z</time>
      </trkpt>
      <trkpt lat="43.56175" lon="6.46607">
        <ele>497.86</ele>
        <time>2013-11-01T12:53:23Z</time>
      </trkpt>
      <trkpt lat="43.56191" lon="6.46595">
        <ele>498.04</ele>
        <time>2013-11-01T12:53:39Z</time>
      </trkpt>
      <trkpt lat="43.56206" lon="6.46577">
        <ele>498.29</ele>
        <time>2013-11-01T12:53:55Z</time>
      </trkpt>
      <trkpt lat="43.56221" lon="6.46559">
        <ele>498.33</ele>
        <time>2013-11-01T12:54:11Z</time>
      </trkpt>
      <trkpt lat="43.56238" lon="6.46543">
        <ele>499.02</ele>
        <time>2013-11-01T12:54:27Z</time>
      </trkpt>
      <trkpt lat="43.56256" lon="6.46531">
        <ele>498.57</ele>
        <time>2013-11-01T12:54:45Z</time>
      </trkpt>
      <trkpt lat="43.56273" lon="6.46519">
        <ele>497.3</ele>
        <time>2013-11-01T12:55:03Z</time>
      </trkpt>
      <trkpt lat="43.5629" lon="6.46511">
        <ele>496.71</ele>
        <time>2013-11-01T12:55:19Z</time>
      </trkpt>
      <trkpt lat="43.56308" lon="6.465">
        <ele>496.93</ele>
        <time>2013-11-01T12:55:39Z</time>
      </trkpt>
      <trkpt lat="43.56308" lon="6.465">
        <ele>496.93</ele>
        <time>2013-11-01T12:55:39Z</time>
      </trkpt>
      <trkpt lat="43.56327" lon="6.46499">
        <ele>496.69</ele>
        <time>2013-11-01T12:55:59Z</time>
      </trkpt>
      <trkpt lat="43.56345" lon="6.46501">
        <ele>497.2</ele>
        <time>2013-11-01T12:56:17Z</time>
      </trkpt>
      <trkpt lat="43.56365" lon="6.46498">
        <ele>497.85</ele>
        <time>2013-11-01T12:56:33Z</time>
      </trkpt>
      <trkpt lat="43.56383" lon="6.46489">
        <ele>498.87</ele>
        <time>2013-11-01T12:56:51Z</time>
      </trkpt>
      <trkpt lat="43.5639" lon="6.46466">
        <ele>500.21</ele>
        <time>2013-11-01T12:57:09Z</time>
      </trkpt>
      <trkpt lat="43.56395" lon="6.46442">
        <ele>501.2</ele>
        <time>2013-11-01T12:57:35Z</time>
      </trkpt>
      <trkpt lat="43.5641" lon="6.46426">
        <ele>502.97</ele>
        <time>2013-11-01T12:57:55Z</time>
      </trkpt>
      <trkpt lat="43.56426" lon="6.46416">
        <ele>503.83</ele>
        <time>2013-11-01T12:58:13Z</time>
      </trkpt>
      <trkpt lat="43.56441" lon="6.46399">
        <ele>505.19</ele>
        <time>2013-11-01T12:58:27Z</time>
      </trkpt>
      <trkpt lat="43.56456" lon="6.46381">
        <ele>506.86</ele>
        <time>2013-11-01T12:58:43Z</time>
      </trkpt>
      <trkpt lat="43.56456" lon="6.46381">
        <ele>506.86</ele>
        <time>2013-11-01T12:58:43Z</time>
      </trkpt>
      <trkpt lat="43.56468" lon="6.46363">
        <ele>508.28</ele>
        <time>2013-11-01T12:58:59Z</time>
      </trkpt>
      <trkpt lat="43.5648" lon="6.46342">
        <ele>508.75</ele>
        <time>2013-11-01T12:59:19Z</time>
      </trkpt>
      <trkpt lat="43.56496" lon="6.4633">
        <ele>510.15</ele>
        <time>2013-11-01T12:59:41Z</time>
      </trkpt>
      <trkpt lat="43.56515" lon="6.46323">
        <ele>511.61</ele>
        <time>2013-11-01T13:00:03Z</time>
      </trkpt>
      <trkpt lat="43.56533" lon="6.46315">
        <ele>514.86</ele>
        <time>2013-11-01T13:00:25Z</time>
      </trkpt>
      <trkpt lat="43.56551" lon="6.46307">
        <ele>517.06</ele>
        <time>2013-11-01T13:00:47Z</time>
      </trkpt>
      <trkpt lat="43.56569" lon="6.46298">
        <ele>519.22</ele>
        <time>2013-11-01T13:01:07Z</time>
      </trkpt>
      <trkpt lat="43.56587" lon="6.46291">
        <ele>520.5</ele>
        <time>2013-11-01T13:01:27Z</time>
      </trkpt>
      <trkpt lat="43.56607" lon="6.46296">
        <ele>520.24</ele>
        <time>2013-11-01T13:01:47Z</time>
      </trkpt>
      <trkpt lat="43.56607" lon="6.46296">
        <ele>520.24</ele>
        <time>2013-11-01T13:01:47Z</time>
      </trkpt>
      <trkpt lat="43.56626" lon="6.46304">
        <ele>519.01</ele>
        <time>2013-11-01T13:02:05Z</time>
      </trkpt>
      <trkpt lat="43.56642" lon="6.46317">
        <ele>518.03</ele>
        <time>2013-11-01T13:02:43Z</time>
      </trkpt>
      <trkpt lat="43.56657" lon="6.46332">
        <ele>517.71</ele>
        <time>2013-11-01T13:03:07Z</time>
      </trkpt>
      <trkpt lat="43.56669" lon="6.46352">
        <ele>514.89</ele>
        <time>2013-11-01T13:03:21Z</time>
      </trkpt>
      <trkpt lat="43.56681" lon="6.46371">
        <ele>510.86</ele>
        <time>2013-11-01T13:03:37Z</time>
      </trkpt>
      <trkpt lat="43.56682" lon="6.4636">
        <ele>509.73</ele>
        <time>2013-11-01T13:04:09Z</time>
      </trkpt>
      <trkpt lat="43.56695" lon="6.46379">
        <ele>510.47</ele>
        <time>2013-11-01T13:04:35Z</time>
      </trkpt>
      <trkpt lat="43.56695" lon="6.46379">
        <ele>510.47</ele>
        <time>2013-11-01T13:04:35Z</time>
      </trkpt>
      <trkpt lat="43.56708" lon="6.46397">
        <ele>510.06</ele>
        <time>2013-11-01T13:04:51Z</time>
      </trkpt>
      <trkpt lat="43.56722" lon="6.46413">
        <ele>508.18</ele>
        <time>2013-11-01T13:05:07Z</time>
      </trkpt>
      <trkpt lat="43.56736" lon="6.46429">
        <ele>505.47</ele>
        <time>2013-11-01T13:05:23Z</time>
      </trkpt>
      <trkpt lat="43.56753" lon="6.46446">
        <ele>503.11</ele>
        <time>2013-11-01T13:05:45Z</time>
      </trkpt>
      <trkpt lat="43.56769" lon="6.46458">
        <ele>502.14</ele>
        <time>2013-11-01T13:05:59Z</time>
      </trkpt>
      <trkpt lat="43.56784" lon="6.46472">
        <ele>500.29</ele>
        <time>2013-11-01T13:06:15Z</time>
      </trkpt>
      <trkpt lat="43.568" lon="6.46487">
        <ele>497.47</ele>
        <time>2013-11-01T13:06:35Z</time>
      </trkpt>
      <trkpt lat="43.56816" lon="6.465">
        <ele>494.27</ele>
        <time>2013-11-01T13:06:51Z</time>
      </trkpt>
      <trkpt lat="43.56834" lon="6.46508">
        <ele>490.37</ele>
        <time>2013-11-01T13:07:47Z</time>
      </trkpt>
      <trkpt lat="43.56834" lon="6.46508">
        <ele>490.37</ele>
        <time>2013-11-01T13:07:47Z</time>
      </trkpt>
      <trkpt lat="43.56853" lon="6.46516">
        <ele>489.26</ele>
        <time>2013-11-01T13:08:05Z</time>
      </trkpt>
      <trkpt lat="43.56872" lon="6.46524">
        <ele>487.77</ele>
        <time>2013-11-01T13:08:21Z</time>
      </trkpt>
      <trkpt lat="43.56891" lon="6.46534">
        <ele>487.33</ele>
        <time>2013-11-01T13:08:39Z</time>
      </trkpt>
      <trkpt lat="43.5691" lon="6.46527">
        <ele>486.16</ele>
        <time>2013-11-01T13:08:59Z</time>
      </trkpt>
      <trkpt lat="43.56927" lon="6.46514">
        <ele>485.25</ele>
        <time>2013-11-01T13:09:11Z</time>
      </trkpt>
      <trkpt lat="43.56944" lon="6.46504">
        <ele>485.38</ele>
        <time>2013-11-01T13:09:31Z</time>
      </trkpt>
      <trkpt lat="43.56962" lon="6.465">
        <ele>486.64</ele>
        <time>2013-11-01T13:09:49Z</time>
      </trkpt>
      <trkpt lat="43.56983" lon="6.46501">
        <ele>487.81</ele>
        <time>2013-11-01T13:10:25Z</time>
      </trkpt>
      <trkpt lat="43.57001" lon="6.4651">
        <ele>489.12</ele>
        <time>2013-11-01T13:10:41Z</time>
      </trkpt>
      <trkpt lat="43.57001" lon="6.4651">
        <ele>489.12</ele>
        <time>2013-11-01T13:10:41Z</time>
      </trkpt>
      <trkpt lat="43.57018" lon="6.4652">
        <ele>489.22</ele>
        <time>2013-11-01T13:11:27Z</time>
      </trkpt>
      <trkpt lat="43.57038" lon="6.46528">
        <ele>489.63</ele>
        <time>2013-11-01T13:11:47Z</time>
      </trkpt>
      <trkpt lat="43.57057" lon="6.46534">
        <ele>490.3</ele>
        <time>2013-11-01T13:12:03Z</time>
      </trkpt>
      <trkpt lat="43.57076" lon="6.46539">
        <ele>488.76</ele>
        <time>2013-11-01T13:12:23Z</time>
      </trkpt>
      <trkpt lat="43.57094" lon="6.46537">
        <ele>487.89</ele>
        <time>2013-11-01T13:12:45Z</time>
      </trkpt>
      <trkpt lat="43.57114" lon="6.4654">
        <ele>486.83</ele>
        <time>2013-11-01T13:13:01Z</time>
      </trkpt>
      <trkpt lat="43.5713" lon="6.46551">
        <ele>486.08</ele>
        <time>2013-11-01T13:13:18Z</time>
      </trkpt>
      <trkpt lat="43.57146" lon="6.46568">
        <ele>484.12</ele>
        <time>2013-11-01T13:13:34Z</time>
      </trkpt>
      <trkpt lat="43.57158" lon="6.46586">
        <ele>483.4</ele>
        <time>2013-11-01T13:13:50Z</time>
      </trkpt>
      <trkpt lat="43.57158" lon="6.46586">
        <ele>483.4</ele>
        <time>2013-11-01T13:13:50Z</time>
      </trkpt>
      <trkpt lat="43.57169" lon="6.46609">
        <ele>481.68</ele>
        <time>2013-11-01T13:14:08Z</time>
      </trkpt>
      <trkpt lat="43.57177" lon="6.46631">
        <ele>479.9</ele>
        <time>2013-11-01T13:14:26Z</time>
      </trkpt>
      <trkpt lat="43.57181" lon="6.46657">
        <ele>477.34</ele>
        <time>2013-11-01T13:14:42Z</time>
      </trkpt>
      <trkpt lat="43.57183" lon="6.46684">
        <ele>475.28</ele>
        <time>2013-11-01T13:14:58Z</time>
      </trkpt>
      <trkpt lat="43.57191" lon="6.46711">
        <ele>474.87</ele>
        <time>2013-11-01T13:15:12Z</time>
      </trkpt>
      <trkpt lat="43.57201" lon="6.46733">
        <ele>475.17</ele>
        <time>2013-11-01T13:15:28Z</time>
      </trkpt>
      <trkpt lat="43.57218" lon="6.46743">
        <ele>473.71</ele>
        <time>2013-11-01T13:15:44Z</time>
      </trkpt>
      <trkpt lat="43.5723" lon="6.46764">
        <ele>471.29</ele>
        <time>2013-11-01T13:16:02Z</time>
      </trkpt>
      <trkpt lat="43.5724" lon="6.46785">
        <ele>469.94</ele>
        <time>2013-11-01T13:16:16Z</time>
      </trkpt>
      <trkpt lat="43.5724" lon="6.46812">
        <ele>469</ele>
        <time>2013-11-01T13:16:30Z</time>
      </trkpt>
      <trkpt lat="43.5724" lon="6.46837">
        <ele>469.71</ele>
        <time>2013-11-01T13:16:46Z</time>
      </trkpt>
      <trkpt lat="43.5724" lon="6.46837">
        <ele>469.71</ele>
        <time>2013-11-01T13:16:46Z</time>
      </trkpt>
      <trkpt lat="43.5724" lon="6.46864">
        <ele>470.59</ele>
        <time>2013-11-01T13:17:00Z</time>
      </trkpt>
      <trkpt lat="43.5724" lon="6.46889">
        <ele>471</ele>
        <time>2013-11-01T13:17:16Z</time>
      </trkpt>
      <trkpt lat="43.57242" lon="6.46916">
        <ele>470.62</ele>
        <time>2013-11-01T13:17:34Z</time>
      </trkpt>
      <trkpt lat="43.57242" lon="6.46942">
        <ele>470.98</ele>
        <time>2013-11-01T13:17:50Z</time>
      </trkpt>
      <trkpt lat="43.57243" lon="6.46969">
        <ele>469.74</ele>
        <time>2013-11-01T13:18:08Z</time>
      </trkpt>
      <trkpt lat="43.57243" lon="6.46996">
        <ele>470.05</ele>
        <time>2013-11-01T13:18:22Z</time>
      </trkpt>
      <trkpt lat="43.57245" lon="6.47022">
        <ele>470.31</ele>
        <time>2013-11-01T13:18:38Z</time>
      </trkpt>
      <trkpt lat="43.57247" lon="6.47047">
        <ele>469.28</ele>
        <time>2013-11-01T13:18:54Z</time>
      </trkpt>
      <trkpt lat="43.57254" lon="6.47075">
        <ele>469.4</ele>
        <time>2013-11-01T13:19:10Z</time>
      </trkpt>
      <trkpt lat="43.57268" lon="6.4709">
        <ele>466.7</ele>
        <time>2013-11-01T13:19:34Z</time>
      </trkpt>
      <trkpt lat="43.57266" lon="6.47095">
        <ele>466.43</ele>
        <time>2013-11-01T13:19:46Z</time>
      </trkpt>
      <trkpt lat="43.57266" lon="6.47095">
        <ele>466.43</ele>
        <time>2013-11-01T13:19:46Z</time>
      </trkpt>
      <trkpt lat="43.57278" lon="6.47121">
        <ele>464.74</ele>
        <time>2013-11-01T13:20:02Z</time>
      </trkpt>
      <trkpt lat="43.57285" lon="6.47146">
        <ele>462.93</ele>
        <time>2013-11-01T13:20:18Z</time>
      </trkpt>
      <trkpt lat="43.57291" lon="6.4717">
        <ele>460.7</ele>
        <time>2013-11-01T13:20:34Z</time>
      </trkpt>
      <trkpt lat="43.57295" lon="6.47196">
        <ele>459.33</ele>
        <time>2013-11-01T13:20:48Z</time>
      </trkpt>
      <trkpt lat="43.57297" lon="6.47222">
        <ele>457.84</ele>
        <time>2013-11-01T13:21:04Z</time>
      </trkpt>
      <trkpt lat="43.57297" lon="6.47249">
        <ele>457.62</ele>
        <time>2013-11-01T13:21:40Z</time>
      </trkpt>
      <trkpt lat="43.57293" lon="6.47275">
        <ele>455.66</ele>
        <time>2013-11-01T13:21:56Z</time>
      </trkpt>
      <trkpt lat="43.57287" lon="6.473">
        <ele>454.78</ele>
        <time>2013-11-01T13:22:10Z</time>
      </trkpt>
      <trkpt lat="43.57283" lon="6.47327">
        <ele>452.85</ele>
        <time>2013-11-01T13:22:28Z</time>
      </trkpt>
      <trkpt lat="43.57283" lon="6.47327">
        <ele>452.85</ele>
        <time>2013-11-01T13:22:28Z</time>
      </trkpt>
      <trkpt lat="43.57285" lon="6.47333">
        <ele>451.66</ele>
        <time>2013-11-01T13:22:58Z</time>
      </trkpt>
      <trkpt lat="43.57284" lon="6.47358">
        <ele>452.42</ele>
        <time>2013-11-01T13:23:34Z</time>
      </trkpt>
      <trkpt lat="43.57282" lon="6.47386">
        <ele>451.24</ele>
        <time>2013-11-01T13:23:50Z</time>
      </trkpt>
      <trkpt lat="43.57283" lon="6.47411">
        <ele>451.09</ele>
        <time>2013-11-01T13:24:02Z</time>
      </trkpt>
      <trkpt lat="43.57285" lon="6.47437">
        <ele>450.92</ele>
        <time>2013-11-01T13:24:20Z</time>
      </trkpt>
      <trkpt lat="43.57287" lon="6.47447">
        <ele>451.23</ele>
        <time>2013-11-01T13:24:48Z</time>
      </trkpt>
      <trkpt lat="43.5727" lon="6.47459">
        <ele>449.47</ele>
        <time>2013-11-01T13:25:04Z</time>
      </trkpt>
      <trkpt lat="43.57255" lon="6.47473">
        <ele>448.74</ele>
        <time>2013-11-01T13:25:18Z</time>
      </trkpt>
      <trkpt lat="43.57247" lon="6.47496">
        <ele>448.16</ele>
        <time>2013-11-01T13:25:34Z</time>
      </trkpt>
      <trkpt lat="43.57247" lon="6.47496">
        <ele>448.16</ele>
        <time>2013-11-01T13:25:34Z</time>
      </trkpt>
      <trkpt lat="43.57238" lon="6.47522">
        <ele>446.28</ele>
        <time>2013-11-01T13:25:58Z</time>
      </trkpt>
      <trkpt lat="43.5723" lon="6.47547">
        <ele>446.32</ele>
        <time>2013-11-01T13:26:14Z</time>
      </trkpt>
      <trkpt lat="43.57225" lon="6.47572">
        <ele>447.21</ele>
        <time>2013-11-01T13:26:26Z</time>
      </trkpt>
      <trkpt lat="43.57219" lon="6.47597">
        <ele>447.94</ele>
        <time>2013-11-01T13:26:44Z</time>
      </trkpt>
      <trkpt lat="43.57216" lon="6.47624">
        <ele>448.48</ele>
        <time>2013-11-01T13:26:58Z</time>
      </trkpt>
      <trkpt lat="43.57214" lon="6.47649">
        <ele>448.79</ele>
        <time>2013-11-01T13:27:14Z</time>
      </trkpt>
      <trkpt lat="43.57211" lon="6.47675">
        <ele>448.8</ele>
        <time>2013-11-01T13:27:28Z</time>
      </trkpt>
      <trkpt lat="43.5721" lon="6.477">
        <ele>448.98</ele>
        <time>2013-11-01T13:27:44Z</time>
      </trkpt>
      <trkpt lat="43.5721" lon="6.47725">
        <ele>448.86</ele>
        <time>2013-11-01T13:27:58Z</time>
      </trkpt>
      <trkpt lat="43.57208" lon="6.47751">
        <ele>448.7</ele>
        <time>2013-11-01T13:28:16Z</time>
      </trkpt>
      <trkpt lat="43.57205" lon="6.47776">
        <ele>448.65</ele>
        <time>2013-11-01T13:28:30Z</time>
      </trkpt>
      <trkpt lat="43.57201" lon="6.47801">
        <ele>447.25</ele>
        <time>2013-11-01T13:28:50Z</time>
      </trkpt>
      <trkpt lat="43.57201" lon="6.47801">
        <ele>447.25</ele>
        <time>2013-11-01T13:28:50Z</time>
      </trkpt>
      <trkpt lat="43.57199" lon="6.47828">
        <ele>447</ele>
        <time>2013-11-01T13:29:26Z</time>
      </trkpt>
      <trkpt lat="43.57195" lon="6.47853">
        <ele>446.06</ele>
        <time>2013-11-01T13:29:40Z</time>
      </trkpt>
      <trkpt lat="43.57193" lon="6.47878">
        <ele>445.35</ele>
        <time>2013-11-01T13:29:54Z</time>
      </trkpt>
      <trkpt lat="43.57185" lon="6.47901">
        <ele>445.07</ele>
        <time>2013-11-01T13:30:12Z</time>
      </trkpt>
      <trkpt lat="43.57169" lon="6.47916">
        <ele>444.48</ele>
        <time>2013-11-01T13:30:30Z</time>
      </trkpt>
      <trkpt lat="43.57159" lon="6.47937">
        <ele>443.17</ele>
        <time>2013-11-01T13:30:48Z</time>
      </trkpt>
      <trkpt lat="43.57149" lon="6.47962">
        <ele>441.58</ele>
        <time>2013-11-01T13:31:06Z</time>
      </trkpt>
      <trkpt lat="43.57132" lon="6.47975">
        <ele>441</ele>
        <time>2013-11-01T13:31:44Z</time>
      </trkpt>
      <trkpt lat="43.57132" lon="6.47975">
        <ele>441</ele>
        <time>2013-11-01T13:31:44Z</time>
      </trkpt>
      <trkpt lat="43.5713" lon="6.47999">
        <ele>438.22</ele>
        <time>2013-11-01T13:32:06Z</time>
      </trkpt>
      <trkpt lat="43.57118" lon="6.48019">
        <ele>436.98</ele>
        <time>2013-11-01T13:32:22Z</time>
      </trkpt>
      <trkpt lat="43.57108" lon="6.4804">
        <ele>436.36</ele>
        <time>2013-11-01T13:32:38Z</time>
      </trkpt>
      <trkpt lat="43.57096" lon="6.48065">
        <ele>436.38</ele>
        <time>2013-11-01T13:32:52Z</time>
      </trkpt>
      <trkpt lat="43.57085" lon="6.48087">
        <ele>437.76</ele>
        <time>2013-11-01T13:33:08Z</time>
      </trkpt>
      <trkpt lat="43.57079" lon="6.48112">
        <ele>438.69</ele>
        <time>2013-11-01T13:33:24Z</time>
      </trkpt>
      <trkpt lat="43.57075" lon="6.48138">
        <ele>435.72</ele>
        <time>2013-11-01T13:33:47Z</time>
      </trkpt>
      <trkpt lat="43.57064" lon="6.48158">
        <ele>433.22</ele>
        <time>2013-11-01T13:34:02Z</time>
      </trkpt>
      <trkpt lat="43.57053" lon="6.48179">
        <ele>429.69</ele>
        <time>2013-11-01T13:34:20Z</time>
      </trkpt>
      <trkpt lat="43.57048" lon="6.48202">
        <ele>427.23</ele>
        <time>2013-11-01T13:34:36Z</time>
      </trkpt>
      <trkpt lat="43.57048" lon="6.48202">
        <ele>427.23</ele>
        <time>2013-11-01T13:34:36Z</time>
      </trkpt>
      <trkpt lat="43.57044" lon="6.48228">
        <ele>425.26</ele>
        <time>2013-11-01T13:34:52Z</time>
      </trkpt>
      <trkpt lat="43.57045" lon="6.48257">
        <ele>422.16</ele>
        <time>2013-11-01T13:35:12Z</time>
      </trkpt>
      <trkpt lat="43.57048" lon="6.48284">
        <ele>420.31</ele>
        <time>2013-11-01T13:35:28Z</time>
      </trkpt>
      <trkpt lat="43.57058" lon="6.48304">
        <ele>415.56</ele>
        <time>2013-11-01T13:35:56Z</time>
      </trkpt>
      <trkpt lat="43.57072" lon="6.48324">
        <ele>411.26</ele>
        <time>2013-11-01T13:36:16Z</time>
      </trkpt>
      <trkpt lat="43.57088" lon="6.4834">
        <ele>407.11</ele>
        <time>2013-11-01T13:36:52Z</time>
      </trkpt>
      <trkpt lat="43.57088" lon="6.4834">
        <ele>407.11</ele>
        <time>2013-11-01T13:36:52Z</time>
      </trkpt>
      <trkpt lat="43.5707" lon="6.48351">
        <ele>404.08</ele>
        <time>2013-11-01T13:38:20Z</time>
      </trkpt>
      <trkpt lat="43.57054" lon="6.48338">
        <ele>405.06</ele>
        <time>2013-11-01T13:38:36Z</time>
      </trkpt>
      <trkpt lat="43.5704" lon="6.48323">
        <ele>405.35</ele>
        <time>2013-11-01T13:38:56Z</time>
      </trkpt>
      <trkpt lat="43.57026" lon="6.48306">
        <ele>403.66</ele>
        <time>2013-11-01T13:39:22Z</time>
      </trkpt>
      <trkpt lat="43.57017" lon="6.48285">
        <ele>401.89</ele>
        <time>2013-11-01T13:39:46Z</time>
      </trkpt>
      <trkpt lat="43.57006" lon="6.48264">
        <ele>400.53</ele>
        <time>2013-11-01T13:40:42Z</time>
      </trkpt>
      <trkpt lat="43.57006" lon="6.48264">
        <ele>400.53</ele>
        <time>2013-11-01T13:40:42Z</time>
      </trkpt>
      <trkpt lat="43.56988" lon="6.48264">
        <ele>396.46</ele>
        <time>2013-11-01T13:42:02Z</time>
      </trkpt>
      <trkpt lat="43.56976" lon="6.48283">
        <ele>397.25</ele>
        <time>2013-11-01T13:42:38Z</time>
      </trkpt>
      <trkpt lat="43.56958" lon="6.48298">
        <ele>398.01</ele>
        <time>2013-11-01T13:43:02Z</time>
      </trkpt>
      <trkpt lat="43.56941" lon="6.4831">
        <ele>397.13</ele>
        <time>2013-11-01T13:43:30Z</time>
      </trkpt>
      <trkpt lat="43.56925" lon="6.48324">
        <ele>396.78</ele>
        <time>2013-11-01T13:43:50Z</time>
      </trkpt>
      <trkpt lat="43.56925" lon="6.48324">
        <ele>396.78</ele>
        <time>2013-11-01T13:43:50Z</time>
      </trkpt>
      <trkpt lat="43.56908" lon="6.48334">
        <ele>397.64</ele>
        <time>2013-11-01T13:44:08Z</time>
      </trkpt>
      <trkpt lat="43.56892" lon="6.48347">
        <ele>398.3</ele>
        <time>2013-11-01T13:44:30Z</time>
      </trkpt>
      <trkpt lat="43.56874" lon="6.48338">
        <ele>399.66</ele>
        <time>2013-11-01T13:44:52Z</time>
      </trkpt>
      <trkpt lat="43.56857" lon="6.48348">
        <ele>404</ele>
        <time>2013-11-01T13:45:12Z</time>
      </trkpt>
      <trkpt lat="43.56855" lon="6.48352">
        <ele>404.67</ele>
        <time>2013-11-01T13:45:16Z</time>
      </trkpt>
      <trkpt lat="43.56844" lon="6.48374">
        <ele>407.6</ele>
        <time>2013-11-01T13:45:42Z</time>
      </trkpt>
      <trkpt lat="43.56846" lon="6.4838">
        <ele>410.85</ele>
        <time>2013-11-01T13:46:12Z</time>
      </trkpt>
      <trkpt lat="43.56841" lon="6.48396">
        <ele>412.29</ele>
        <time>2013-11-01T13:46:48Z</time>
      </trkpt>
      <trkpt lat="43.56841" lon="6.48396">
        <ele>412.29</ele>
        <time>2013-11-01T13:46:48Z</time>
      </trkpt>
      <trkpt lat="43.56831" lon="6.48416">
        <ele>413.88</ele>
        <time>2013-11-01T13:46:55Z</time>
      </trkpt>
      <trkpt lat="43.56814" lon="6.4843">
        <ele>414.54</ele>
        <time>2013-11-01T13:47:15Z</time>
      </trkpt>
      <trkpt lat="43.56802" lon="6.48452">
        <ele>415.09</ele>
        <time>2013-11-01T13:47:35Z</time>
      </trkpt>
      <trkpt lat="43.56786" lon="6.48467">
        <ele>418.21</ele>
        <time>2013-11-01T13:48:19Z</time>
      </trkpt>
      <trkpt lat="43.5677" lon="6.48479">
        <ele>419.48</ele>
        <time>2013-11-01T13:48:45Z</time>
      </trkpt>
      <trkpt lat="43.56754" lon="6.4849">
        <ele>418.98</ele>
        <time>2013-11-01T13:49:08Z</time>
      </trkpt>
      <trkpt lat="43.56742" lon="6.48508">
        <ele>419.78</ele>
        <time>2013-11-01T13:49:30Z</time>
      </trkpt>
      <trkpt lat="43.56742" lon="6.48508">
        <ele>419.78</ele>
        <time>2013-11-01T13:49:30Z</time>
      </trkpt>
      <trkpt lat="43.56733" lon="6.48534">
        <ele>423.03</ele>
        <time>2013-11-01T13:50:00Z</time>
      </trkpt>
      <trkpt lat="43.56723" lon="6.48556">
        <ele>424.71</ele>
        <time>2013-11-01T13:50:18Z</time>
      </trkpt>
      <trkpt lat="43.5671" lon="6.48575">
        <ele>424.44</ele>
        <time>2013-11-01T13:50:38Z</time>
      </trkpt>
      <trkpt lat="43.56708" lon="6.48584">
        <ele>426.45</ele>
        <time>2013-11-01T13:51:50Z</time>
      </trkpt>
      <trkpt lat="43.56708" lon="6.48589">
        <ele>426.38</ele>
        <time>2013-11-01T13:52:18Z</time>
      </trkpt>
      <trkpt lat="43.56709" lon="6.48581">
        <ele>429.24</ele>
        <time>2013-11-01T13:53:12Z</time>
      </trkpt>
      <trkpt lat="43.567" lon="6.48584">
        <ele>431.81</ele>
        <time>2013-11-01T13:54:52Z</time>
      </trkpt>
      <trkpt lat="43.567" lon="6.48584">
        <ele>431.81</ele>
        <time>2013-11-01T13:54:52Z</time>
      </trkpt>
      <trkpt lat="43.56684" lon="6.48601">
        <ele>430.4</ele>
        <time>2013-11-01T13:56:22Z</time>
      </trkpt>
      <trkpt lat="43.56672" lon="6.48622">
        <ele>430.19</ele>
        <time>2013-11-01T13:56:42Z</time>
      </trkpt>
      <trkpt lat="43.56657" lon="6.48638">
        <ele>431.28</ele>
        <time>2013-11-01T13:57:06Z</time>
      </trkpt>
      <trkpt lat="43.56646" lon="6.48657">
        <ele>435.84</ele>
        <time>2013-11-01T13:57:32Z</time>
      </trkpt>
      <trkpt lat="43.56633" lon="6.48674">
        <ele>438.43</ele>
        <time>2013-11-01T13:58:00Z</time>
      </trkpt>
      <trkpt lat="43.56624" lon="6.48697">
        <ele>437.4</ele>
        <time>2013-11-01T13:58:28Z</time>
      </trkpt>
      <trkpt lat="43.56624" lon="6.48697">
        <ele>437.4</ele>
        <time>2013-11-01T13:58:28Z</time>
      </trkpt>
      <trkpt lat="43.56608" lon="6.48721">
        <ele>436.33</ele>
        <time>2013-11-01T13:59:07Z</time>
      </trkpt>
      <trkpt lat="43.56599" lon="6.48743">
        <ele>437.31</ele>
        <time>2013-11-01T13:59:41Z</time>
      </trkpt>
      <trkpt lat="43.56589" lon="6.48768">
        <ele>440.32</ele>
        <time>2013-11-01T13:59:58Z</time>
      </trkpt>
      <trkpt lat="43.56571" lon="6.48774">
        <ele>442.62</ele>
        <time>2013-11-01T14:01:04Z</time>
      </trkpt>
      <trkpt lat="43.56571" lon="6.4877">
        <ele>443.62</ele>
        <time>2013-11-01T14:01:50Z</time>
      </trkpt>
      <trkpt lat="43.56569" lon="6.48768">
        <ele>443.86</ele>
        <time>2013-11-01T14:02:18Z</time>
      </trkpt>
      <trkpt lat="43.56551" lon="6.48772">
        <ele>444.14</ele>
        <time>2013-11-01T14:02:40Z</time>
      </trkpt>
      <trkpt lat="43.56531" lon="6.48767">
        <ele>445.03</ele>
        <time>2013-11-01T14:03:00Z</time>
      </trkpt>
      <trkpt lat="43.56515" lon="6.48753">
        <ele>445.78</ele>
        <time>2013-11-01T14:03:24Z</time>
      </trkpt>
      <trkpt lat="43.56502" lon="6.48734">
        <ele>448.57</ele>
        <time>2013-11-01T14:03:44Z</time>
      </trkpt>
      <trkpt lat="43.56492" lon="6.48728">
        <ele>448.57</ele>
        <time>2013-11-01T14:04:38Z</time>
      </trkpt>
      <trkpt lat="43.56492" lon="6.48728">
        <ele>448.57</ele>
        <time>2013-11-01T14:04:38Z</time>
      </trkpt>
      <trkpt lat="43.56482" lon="6.48708">
        <ele>450.04</ele>
        <time>2013-11-01T14:05:06Z</time>
      </trkpt>
      <trkpt lat="43.56473" lon="6.48686">
        <ele>450.7</ele>
        <time>2013-11-01T14:05:28Z</time>
      </trkpt>
      <trkpt lat="43.56463" lon="6.48664">
        <ele>450.63</ele>
        <time>2013-11-01T14:05:44Z</time>
      </trkpt>
      <trkpt lat="43.56456" lon="6.4864">
        <ele>450.16</ele>
        <time>2013-11-01T14:06:04Z</time>
      </trkpt>
      <trkpt lat="43.56447" lon="6.48618">
        <ele>450.17</ele>
        <time>2013-11-01T14:06:20Z</time>
      </trkpt>
      <trkpt lat="43.56434" lon="6.48598">
        <ele>450.08</ele>
        <time>2013-11-01T14:06:40Z</time>
      </trkpt>
      <trkpt lat="43.56417" lon="6.48584">
        <ele>450.59</ele>
        <time>2013-11-01T14:06:58Z</time>
      </trkpt>
      <trkpt lat="43.564" lon="6.48578">
        <ele>451.72</ele>
        <time>2013-11-01T14:07:16Z</time>
      </trkpt>
      <trkpt lat="43.56382" lon="6.48572">
        <ele>451.84</ele>
        <time>2013-11-01T14:07:32Z</time>
      </trkpt>
      <trkpt lat="43.56363" lon="6.4857">
        <ele>452.68</ele>
        <time>2013-11-01T14:07:48Z</time>
      </trkpt>
      <trkpt lat="43.56363" lon="6.4857">
        <ele>452.68</ele>
        <time>2013-11-01T14:07:48Z</time>
      </trkpt>
      <trkpt lat="43.5635" lon="6.4857">
        <ele>454.21</ele>
        <time>2013-11-01T14:08:24Z</time>
      </trkpt>
      <trkpt lat="43.56331" lon="6.48562">
        <ele>455.23</ele>
        <time>2013-11-01T14:08:50Z</time>
      </trkpt>
      <trkpt lat="43.56314" lon="6.48549">
        <ele>454.58</ele>
        <time>2013-11-01T14:09:08Z</time>
      </trkpt>
      <trkpt lat="43.56297" lon="6.48536">
        <ele>454.43</ele>
        <time>2013-11-01T14:09:30Z</time>
      </trkpt>
      <trkpt lat="43.5628" lon="6.48524">
        <ele>454.66</ele>
        <time>2013-11-01T14:09:48Z</time>
      </trkpt>
      <trkpt lat="43.56265" lon="6.48509">
        <ele>453.12</ele>
        <time>2013-11-01T14:10:06Z</time>
      </trkpt>
      <trkpt lat="43.56253" lon="6.4849">
        <ele>452.27</ele>
        <time>2013-11-01T14:10:20Z</time>
      </trkpt>
      <trkpt lat="43.56241" lon="6.4847">
        <ele>452.86</ele>
        <time>2013-11-01T14:10:38Z</time>
      </trkpt>
      <trkpt lat="43.56241" lon="6.4847">
        <ele>452.86</ele>
        <time>2013-11-01T14:10:38Z</time>
      </trkpt>
      <trkpt lat="43.56232" lon="6.48447">
        <ele>452.97</ele>
        <time>2013-11-01T14:10:56Z</time>
      </trkpt>
      <trkpt lat="43.56216" lon="6.48434">
        <ele>452.59</ele>
        <time>2013-11-01T14:11:16Z</time>
      </trkpt>
      <trkpt lat="43.56199" lon="6.48423">
        <ele>452.99</ele>
        <time>2013-11-01T14:11:32Z</time>
      </trkpt>
      <trkpt lat="43.56184" lon="6.48408">
        <ele>451.77</ele>
        <time>2013-11-01T14:11:48Z</time>
      </trkpt>
      <trkpt lat="43.56166" lon="6.48415">
        <ele>452.99</ele>
        <time>2013-11-01T14:12:10Z</time>
      </trkpt>
      <trkpt lat="43.5615" lon="6.48428">
        <ele>454.69</ele>
        <time>2013-11-01T14:12:30Z</time>
      </trkpt>
      <trkpt lat="43.56134" lon="6.4844">
        <ele>456.41</ele>
        <time>2013-11-01T14:12:54Z</time>
      </trkpt>
      <trkpt lat="43.56116" lon="6.48446">
        <ele>458.73</ele>
        <time>2013-11-01T14:13:14Z</time>
      </trkpt>
      <trkpt lat="43.56097" lon="6.48447">
        <ele>460.53</ele>
        <time>2013-11-01T14:13:48Z</time>
      </trkpt>
      <trkpt lat="43.56097" lon="6.48447">
        <ele>460.53</ele>
        <time>2013-11-01T14:13:48Z</time>
      </trkpt>
      <trkpt lat="43.56081" lon="6.48461">
        <ele>461.79</ele>
        <time>2013-11-01T14:14:04Z</time>
      </trkpt>
      <trkpt lat="43.56064" lon="6.48472">
        <ele>464.02</ele>
        <time>2013-11-01T14:14:40Z</time>
      </trkpt>
      <trkpt lat="43.56045" lon="6.48468">
        <ele>464.58</ele>
        <time>2013-11-01T14:14:54Z</time>
      </trkpt>
      <trkpt lat="43.56026" lon="6.4846">
        <ele>465.62</ele>
        <time>2013-11-01T14:15:12Z</time>
      </trkpt>
      <trkpt lat="43.56008" lon="6.48459">
        <ele>466.67</ele>
        <time>2013-11-01T14:15:30Z</time>
      </trkpt>
      <trkpt lat="43.55989" lon="6.48451">
        <ele>467.58</ele>
        <time>2013-11-01T14:15:48Z</time>
      </trkpt>
      <trkpt lat="43.5597" lon="6.48446">
        <ele>466.7</ele>
        <time>2013-11-01T14:16:08Z</time>
      </trkpt>
      <trkpt lat="43.5595" lon="6.48441">
        <ele>465.8</ele>
        <time>2013-11-01T14:16:24Z</time>
      </trkpt>
      <trkpt lat="43.5593" lon="6.48447">
        <ele>465.2</ele>
        <time>2013-11-01T14:16:42Z</time>
      </trkpt>
      <trkpt lat="43.5593" lon="6.48447">
        <ele>465.2</ele>
        <time>2013-11-01T14:16:42Z</time>
      </trkpt>
      <trkpt lat="43.55914" lon="6.48458">
        <ele>463.5</ele>
        <time>2013-11-01T14:17:00Z</time>
      </trkpt>
      <trkpt lat="43.55899" lon="6.48472">
        <ele>461.69</ele>
        <time>2013-11-01T14:17:18Z</time>
      </trkpt>
      <trkpt lat="43.55886" lon="6.48491">
        <ele>460.69</ele>
        <time>2013-11-01T14:17:42Z</time>
      </trkpt>
      <trkpt lat="43.55867" lon="6.48497">
        <ele>458.64</ele>
        <time>2013-11-01T14:18:02Z</time>
      </trkpt>
      <trkpt lat="43.55849" lon="6.48497">
        <ele>457.12</ele>
        <time>2013-11-01T14:18:22Z</time>
      </trkpt>
      <trkpt lat="43.55831" lon="6.48504">
        <ele>455.71</ele>
        <time>2013-11-01T14:18:40Z</time>
      </trkpt>
      <trkpt lat="43.55824" lon="6.485">
        <ele>454.93</ele>
        <time>2013-11-01T14:19:13Z</time>
      </trkpt>
      <trkpt lat="43.55804" lon="6.48503">
        <ele>454.2</ele>
        <time>2013-11-01T14:19:25Z</time>
      </trkpt>
      <trkpt lat="43.55775" lon="6.48513">
        <ele>451.77</ele>
        <time>2013-11-01T14:20:03Z</time>
      </trkpt>
      <trkpt lat="43.55756" lon="6.48515">
        <ele>449.95</ele>
        <time>2013-11-01T14:20:36Z</time>
      </trkpt>
      <trkpt lat="43.55746" lon="6.48516">
        <ele>449.96</ele>
        <time>2013-11-01T14:21:00Z</time>
      </trkpt>
      <trkpt lat="43.55722" lon="6.48511">
        <ele>450.19</ele>
        <time>2013-11-01T14:21:04Z</time>
      </trkpt>
      <trkpt lat="43.55705" lon="6.48499">
        <ele>448.58</ele>
        <time>2013-11-01T14:21:26Z</time>
      </trkpt>
      <trkpt lat="43.55687" lon="6.48495">
        <ele>445.66</ele>
        <time>2013-11-01T14:21:46Z</time>
      </trkpt>
      <trkpt lat="43.55668" lon="6.48487">
        <ele>443.23</ele>
        <time>2013-11-01T14:22:03Z</time>
      </trkpt>
      <trkpt lat="43.5565" lon="6.48483">
        <ele>440.98</ele>
        <time>2013-11-01T14:22:20Z</time>
      </trkpt>
      <trkpt lat="43.55632" lon="6.48474">
        <ele>438.23</ele>
        <time>2013-11-01T14:22:35Z</time>
      </trkpt>
      <trkpt lat="43.55632" lon="6.48474">
        <ele>438.23</ele>
        <time>2013-11-01T14:22:35Z</time>
      </trkpt>
      <trkpt lat="43.55613" lon="6.48477">
        <ele>437.01</ele>
        <time>2013-11-01T14:22:58Z</time>
      </trkpt>
      <trkpt lat="43.55595" lon="6.48476">
        <ele>435.29</ele>
        <time>2013-11-01T14:23:20Z</time>
      </trkpt>
      <trkpt lat="43.55574" lon="6.48481">
        <ele>431.71</ele>
        <time>2013-11-01T14:23:47Z</time>
      </trkpt>
      <trkpt lat="43.55536" lon="6.48479">
        <ele>431.21</ele>
        <time>2013-11-01T14:24:17Z</time>
      </trkpt>
      <trkpt lat="43.555" lon="6.48471">
        <ele>432.51</ele>
        <time>2013-11-01T14:24:45Z</time>
      </trkpt>
      <trkpt lat="43.55479" lon="6.48471">
        <ele>433.01</ele>
        <time>2013-11-01T14:24:57Z</time>
      </trkpt>
      <trkpt lat="43.55461" lon="6.48476">
        <ele>434.1</ele>
        <time>2013-11-01T14:25:13Z</time>
      </trkpt>
      <trkpt lat="43.55442" lon="6.48479">
        <ele>433.58</ele>
        <time>2013-11-01T14:25:33Z</time>
      </trkpt>
      <trkpt lat="43.55442" lon="6.48479">
        <ele>433.58</ele>
        <time>2013-11-01T14:25:33Z</time>
      </trkpt>
      <trkpt lat="43.55415" lon="6.48472">
        <ele>430.45</ele>
        <time>2013-11-01T14:26:25Z</time>
      </trkpt>
      <trkpt lat="43.55403" lon="6.48466">
        <ele>428.21</ele>
        <time>2013-11-01T14:27:18Z</time>
      </trkpt>
      <trkpt lat="43.5539" lon="6.48448">
        <ele>427.58</ele>
        <time>2013-11-01T14:27:32Z</time>
      </trkpt>
      <trkpt lat="43.55378" lon="6.48427">
        <ele>428.1</ele>
        <time>2013-11-01T14:27:40Z</time>
      </trkpt>
      <trkpt lat="43.55368" lon="6.48397">
        <ele>429.06</ele>
        <time>2013-11-01T14:28:00Z</time>
      </trkpt>
      <trkpt lat="43.55357" lon="6.48377">
        <ele>428.83</ele>
        <time>2013-11-01T14:28:26Z</time>
      </trkpt>
      <trkpt lat="43.55341" lon="6.48358">
        <ele>428.27</ele>
        <time>2013-11-01T14:28:40Z</time>
      </trkpt>
      <trkpt lat="43.55326" lon="6.48341">
        <ele>428.57</ele>
        <time>2013-11-01T14:29:00Z</time>
      </trkpt>
      <trkpt lat="43.55317" lon="6.48317">
        <ele>429.49</ele>
        <time>2013-11-01T14:29:14Z</time>
      </trkpt>
      <trkpt lat="43.55311" lon="6.48291">
        <ele>430.1</ele>
        <time>2013-11-01T14:29:32Z</time>
      </trkpt>
      <trkpt lat="43.5531" lon="6.48266">
        <ele>429.14</ele>
        <time>2013-11-01T14:29:48Z</time>
      </trkpt>
      <trkpt lat="43.55317" lon="6.48241">
        <ele>427.9</ele>
        <time>2013-11-01T14:30:04Z</time>
      </trkpt>
      <trkpt lat="43.55322" lon="6.48216">
        <ele>426.4</ele>
        <time>2013-11-01T14:30:22Z</time>
      </trkpt>
      <trkpt lat="43.5533" lon="6.48193">
        <ele>418.71</ele>
        <time>2013-11-01T14:31:10Z</time>
      </trkpt>
      <trkpt lat="43.55338" lon="6.48166">
        <ele>418.04</ele>
        <time>2013-11-01T14:31:22Z</time>
      </trkpt>
      <trkpt lat="43.55342" lon="6.48141">
        <ele>417.79</ele>
        <time>2013-11-01T14:31:36Z</time>
      </trkpt>
      <trkpt lat="43.55342" lon="6.48141">
        <ele>417.79</ele>
        <time>2013-11-01T14:31:36Z</time>
      </trkpt>
      <trkpt lat="43.55344" lon="6.48114">
        <ele>418.64</ele>
        <time>2013-11-01T14:32:02Z</time>
      </trkpt>
      <trkpt lat="43.55339" lon="6.48088">
        <ele>415.19</ele>
        <time>2013-11-01T14:32:28Z</time>
      </trkpt>
      <trkpt lat="43.55339" lon="6.48063">
        <ele>412.14</ele>
        <time>2013-11-01T14:32:46Z</time>
      </trkpt>
      <trkpt lat="43.55341" lon="6.48035">
        <ele>411.86</ele>
        <time>2013-11-01T14:33:02Z</time>
      </trkpt>
      <trkpt lat="43.55337" lon="6.48011">
        <ele>410.11</ele>
        <time>2013-11-01T14:33:30Z</time>
      </trkpt>
      <trkpt lat="43.55343" lon="6.47986">
        <ele>408.89</ele>
        <time>2013-11-01T14:33:48Z</time>
      </trkpt>
      <trkpt lat="43.5535" lon="6.47959">
        <ele>411.6</ele>
        <time>2013-11-01T14:34:08Z</time>
      </trkpt>
      <trkpt lat="43.55353" lon="6.47933">
        <ele>412.19</ele>
        <time>2013-11-01T14:34:24Z</time>
      </trkpt>
      <trkpt lat="43.55353" lon="6.47907">
        <ele>409.44</ele>
        <time>2013-11-01T14:34:46Z</time>
      </trkpt>
      <trkpt lat="43.55353" lon="6.47907">
        <ele>409.44</ele>
        <time>2013-11-01T14:34:46Z</time>
      </trkpt>
      <trkpt lat="43.55342" lon="6.47885">
        <ele>407.53</ele>
        <time>2013-11-01T14:35:04Z</time>
      </trkpt>
      <trkpt lat="43.55329" lon="6.47864">
        <ele>406.68</ele>
        <time>2013-11-01T14:35:24Z</time>
      </trkpt>
      <trkpt lat="43.5532" lon="6.47842">
        <ele>407.03</ele>
        <time>2013-11-01T14:35:42Z</time>
      </trkpt>
      <trkpt lat="43.55318" lon="6.47817">
        <ele>405</ele>
        <time>2013-11-01T14:36:02Z</time>
      </trkpt>
      <trkpt lat="43.55311" lon="6.47792">
        <ele>402.59</ele>
        <time>2013-11-01T14:36:20Z</time>
      </trkpt>
      <trkpt lat="43.55304" lon="6.47766">
        <ele>400.52</ele>
        <time>2013-11-01T14:36:38Z</time>
      </trkpt>
      <trkpt lat="43.55295" lon="6.47744">
        <ele>398.43</ele>
        <time>2013-11-01T14:36:58Z</time>
      </trkpt>
      <trkpt lat="43.55294" lon="6.47717">
        <ele>398.33</ele>
        <time>2013-11-01T14:37:10Z</time>
      </trkpt>
      <trkpt lat="43.55289" lon="6.47694">
        <ele>398.89</ele>
        <time>2013-11-01T14:37:24Z</time>
      </trkpt>
      <trkpt lat="43.5528" lon="6.47671">
        <ele>397.55</ele>
        <time>2013-11-01T14:37:48Z</time>
      </trkpt>
      <trkpt lat="43.5528" lon="6.47671">
        <ele>397.55</ele>
        <time>2013-11-01T14:37:48Z</time>
      </trkpt>
      <trkpt lat="43.55266" lon="6.47655">
        <ele>394.7</ele>
        <time>2013-11-01T14:38:20Z</time>
      </trkpt>
      <trkpt lat="43.55254" lon="6.47635">
        <ele>392.43</ele>
        <time>2013-11-01T14:38:36Z</time>
      </trkpt>
      <trkpt lat="43.55242" lon="6.47617">
        <ele>389.96</ele>
        <time>2013-11-01T14:38:54Z</time>
      </trkpt>
      <trkpt lat="43.55226" lon="6.47602">
        <ele>387.62</ele>
        <time>2013-11-01T14:39:12Z</time>
      </trkpt>
      <trkpt lat="43.55226" lon="6.47602">
        <ele>387.62</ele>
        <time>2013-11-01T14:39:12Z</time>
      </trkpt>
      <trkpt lat="43.55241" lon="6.476">
        <ele>379.22</ele>
        <time>2013-11-01T14:40:56Z</time>
      </trkpt>
      <trkpt lat="43.55242" lon="6.47605">
        <ele>377.79</ele>
        <time>2013-11-01T14:41:34Z</time>
      </trkpt>
      <trkpt lat="43.55239" lon="6.47607">
        <ele>377.97</ele>
        <time>2013-11-01T14:42:10Z</time>
      </trkpt>
      <trkpt lat="43.55257" lon="6.47615">
        <ele>377.1</ele>
        <time>2013-11-01T14:42:38Z</time>
      </trkpt>
      <trkpt lat="43.55273" lon="6.47632">
        <ele>375.49</ele>
        <time>2013-11-01T14:42:58Z</time>
      </trkpt>
      <trkpt lat="43.55288" lon="6.47648">
        <ele>374.06</ele>
        <time>2013-11-01T14:43:16Z</time>
      </trkpt>
      <trkpt lat="43.55304" lon="6.47661">
        <ele>372.85</ele>
        <time>2013-11-01T14:43:38Z</time>
      </trkpt>
      <trkpt lat="43.55304" lon="6.47661">
        <ele>372.85</ele>
        <time>2013-11-01T14:43:38Z</time>
      </trkpt>
      <trkpt lat="43.55318" lon="6.47678">
        <ele>377.78</ele>
        <time>2013-11-01T14:44:40Z</time>
      </trkpt>
      <trkpt lat="43.55336" lon="6.47676">
        <ele>379.01</ele>
        <time>2013-11-01T14:44:54Z</time>
      </trkpt>
      <trkpt lat="43.55354" lon="6.47672">
        <ele>379.99</ele>
        <time>2013-11-01T14:45:34Z</time>
      </trkpt>
      <trkpt lat="43.5537" lon="6.47658">
        <ele>383.38</ele>
        <time>2013-11-01T14:46:06Z</time>
      </trkpt>
      <trkpt lat="43.55385" lon="6.4764">
        <ele>385.39</ele>
        <time>2013-11-01T14:46:34Z</time>
      </trkpt>
      <trkpt lat="43.55394" lon="6.47631">
        <ele>387.75</ele>
        <time>2013-11-01T14:47:00Z</time>
      </trkpt>
      <trkpt lat="43.55413" lon="6.47615">
        <ele>391.58</ele>
        <time>2013-11-01T14:47:52Z</time>
      </trkpt>
      <trkpt lat="43.55426" lon="6.47597">
        <ele>393.48</ele>
        <time>2013-11-01T14:48:08Z</time>
      </trkpt>
      <trkpt lat="43.55434" lon="6.47591">
        <ele>397.06</ele>
        <time>2013-11-01T14:49:43Z</time>
      </trkpt>
      <trkpt lat="43.55434" lon="6.47591">
        <ele>397.06</ele>
        <time>2013-11-01T14:49:43Z</time>
      </trkpt>
      <trkpt lat="43.55438" lon="6.47586">
        <ele>397.7</ele>
        <time>2013-11-01T14:50:09Z</time>
      </trkpt>
      <trkpt lat="43.55456" lon="6.47572">
        <ele>403.81</ele>
        <time>2013-11-01T14:50:47Z</time>
      </trkpt>
      <trkpt lat="43.55471" lon="6.47559">
        <ele>409.27</ele>
        <time>2013-11-01T14:51:33Z</time>
      </trkpt>
      <trkpt lat="43.5548" lon="6.47537">
        <ele>414.15</ele>
        <time>2013-11-01T14:51:55Z</time>
      </trkpt>
      <trkpt lat="43.55484" lon="6.47513">
        <ele>421.56</ele>
        <time>2013-11-01T14:52:19Z</time>
      </trkpt>
      <trkpt lat="43.55495" lon="6.47496">
        <ele>422.81</ele>
        <time>2013-11-01T14:52:55Z</time>
      </trkpt>
      <trkpt lat="43.55499" lon="6.47485">
        <ele>421.96</ele>
        <time>2013-11-01T14:53:37Z</time>
      </trkpt>
      <trkpt lat="43.55529" lon="6.47448">
        <ele>420.07</ele>
        <time>2013-11-01T14:54:33Z</time>
      </trkpt>
      <trkpt lat="43.55544" lon="6.47433">
        <ele>421.34</ele>
        <time>2013-11-01T14:54:55Z</time>
      </trkpt>
      <trkpt lat="43.55562" lon="6.47423">
        <ele>421.91</ele>
        <time>2013-11-01T14:55:45Z</time>
      </trkpt>
      <trkpt lat="43.55562" lon="6.47423">
        <ele>421.91</ele>
        <time>2013-11-01T14:55:45Z</time>
      </trkpt>
      <trkpt lat="43.55573" lon="6.47413">
        <ele>425.96</ele>
        <time>2013-11-01T14:56:39Z</time>
      </trkpt>
      <trkpt lat="43.55589" lon="6.474">
        <ele>427.46</ele>
        <time>2013-11-01T14:57:11Z</time>
      </trkpt>
      <trkpt lat="43.55606" lon="6.4739">
        <ele>427.93</ele>
        <time>2013-11-01T14:57:23Z</time>
      </trkpt>
      <trkpt lat="43.55621" lon="6.47375">
        <ele>427.92</ele>
        <time>2013-11-01T14:57:47Z</time>
      </trkpt>
      <trkpt lat="43.55632" lon="6.47354">
        <ele>425.73</ele>
        <time>2013-11-01T14:58:23Z</time>
      </trkpt>
      <trkpt lat="43.55632" lon="6.47354">
        <ele>425.73</ele>
        <time>2013-11-01T14:58:23Z</time>
      </trkpt>
      <trkpt lat="43.55641" lon="6.47332">
        <ele>422.81</ele>
        <time>2013-11-01T14:59:46Z</time>
      </trkpt>
      <trkpt lat="43.55652" lon="6.47307">
        <ele>423.01</ele>
        <time>2013-11-01T15:00:09Z</time>
      </trkpt>
      <trkpt lat="43.55663" lon="6.47286">
        <ele>425.09</ele>
        <time>2013-11-01T15:00:19Z</time>
      </trkpt>
      <trkpt lat="43.55671" lon="6.47264">
        <ele>425.38</ele>
        <time>2013-11-01T15:00:45Z</time>
      </trkpt>
      <trkpt lat="43.55684" lon="6.47243">
        <ele>426.18</ele>
        <time>2013-11-01T15:01:05Z</time>
      </trkpt>
      <trkpt lat="43.55697" lon="6.47224">
        <ele>429.42</ele>
        <time>2013-11-01T15:01:19Z</time>
      </trkpt>
      <trkpt lat="43.55706" lon="6.47201">
        <ele>431.3</ele>
        <time>2013-11-01T15:01:43Z</time>
      </trkpt>
      <trkpt lat="43.55706" lon="6.47201">
        <ele>431.3</ele>
        <time>2013-11-01T15:01:43Z</time>
      </trkpt>
      <trkpt lat="43.55711" lon="6.47175">
        <ele>430.75</ele>
        <time>2013-11-01T15:02:05Z</time>
      </trkpt>
      <trkpt lat="43.55718" lon="6.47147">
        <ele>432.91</ele>
        <time>2013-11-01T15:02:29Z</time>
      </trkpt>
      <trkpt lat="43.55729" lon="6.47123">
        <ele>437.79</ele>
        <time>2013-11-01T15:02:45Z</time>
      </trkpt>
      <trkpt lat="43.55736" lon="6.47099">
        <ele>439.88</ele>
        <time>2013-11-01T15:03:13Z</time>
      </trkpt>
      <trkpt lat="43.55751" lon="6.4708">
        <ele>440.9</ele>
        <time>2013-11-01T15:03:29Z</time>
      </trkpt>
      <trkpt lat="43.55762" lon="6.47059">
        <ele>444.66</ele>
        <time>2013-11-01T15:03:57Z</time>
      </trkpt>
      <trkpt lat="43.55776" lon="6.47039">
        <ele>443.36</ele>
        <time>2013-11-01T15:04:19Z</time>
      </trkpt>
      <trkpt lat="43.55793" lon="6.47022">
        <ele>446.11</ele>
        <time>2013-11-01T15:04:35Z</time>
      </trkpt>
      <trkpt lat="43.55793" lon="6.47022">
        <ele>446.11</ele>
        <time>2013-11-01T15:04:35Z</time>
      </trkpt>
      <trkpt lat="43.55812" lon="6.47017">
        <ele>448.6</ele>
        <time>2013-11-01T15:04:53Z</time>
      </trkpt>
      <trkpt lat="43.55827" lon="6.47002">
        <ele>449.09</ele>
        <time>2013-11-01T15:05:13Z</time>
      </trkpt>
      <trkpt lat="43.55836" lon="6.46978">
        <ele>448.84</ele>
        <time>2013-11-01T15:05:33Z</time>
      </trkpt>
      <trkpt lat="43.55847" lon="6.46955">
        <ele>451.46</ele>
        <time>2013-11-01T15:05:49Z</time>
      </trkpt>
      <trkpt lat="43.55858" lon="6.46934">
        <ele>454.97</ele>
        <time>2013-11-01T15:06:05Z</time>
      </trkpt>
      <trkpt lat="43.5587" lon="6.46915">
        <ele>459.09</ele>
        <time>2013-11-01T15:06:29Z</time>
      </trkpt>
      <trkpt lat="43.55888" lon="6.46913">
        <ele>457.93</ele>
        <time>2013-11-01T15:06:57Z</time>
      </trkpt>
      <trkpt lat="43.55907" lon="6.46904">
        <ele>459.5</ele>
        <time>2013-11-01T15:07:17Z</time>
      </trkpt>
      <trkpt lat="43.55925" lon="6.46898">
        <ele>461.03</ele>
        <time>2013-11-01T15:07:35Z</time>
      </trkpt>
      <trkpt lat="43.55925" lon="6.46898">
        <ele>461.03</ele>
        <time>2013-11-01T15:07:35Z</time>
      </trkpt>
      <trkpt lat="43.5594" lon="6.46884">
        <ele>461.25</ele>
        <time>2013-11-01T15:07:57Z</time>
      </trkpt>
      <trkpt lat="43.55955" lon="6.46867">
        <ele>461.51</ele>
        <time>2013-11-01T15:08:17Z</time>
      </trkpt>
      <trkpt lat="43.5597" lon="6.46852">
        <ele>462.96</ele>
        <time>2013-11-01T15:08:35Z</time>
      </trkpt>
      <trkpt lat="43.55985" lon="6.46836">
        <ele>463.7</ele>
        <time>2013-11-01T15:08:55Z</time>
      </trkpt>
      <trkpt lat="43.56001" lon="6.46821">
        <ele>465.06</ele>
        <time>2013-11-01T15:09:17Z</time>
      </trkpt>
      <trkpt lat="43.56012" lon="6.468">
        <ele>463.75</ele>
        <time>2013-11-01T15:10:03Z</time>
      </trkpt>
      <trkpt lat="43.56026" lon="6.46782">
        <ele>463.82</ele>
        <time>2013-11-01T15:10:25Z</time>
      </trkpt>
      <trkpt lat="43.56026" lon="6.46782">
        <ele>463.82</ele>
        <time>2013-11-01T15:10:25Z</time>
      </trkpt>
      <trkpt lat="43.56035" lon="6.46758">
        <ele>467.13</ele>
        <time>2013-11-01T15:11:19Z</time>
      </trkpt>
      <trkpt lat="43.56037" lon="6.46731">
        <ele>469.09</ele>
        <time>2013-11-01T15:11:39Z</time>
      </trkpt>
      <trkpt lat="43.56039" lon="6.46728">
        <ele>469.54</ele>
        <time>2013-11-01T15:12:19Z</time>
      </trkpt>
      <trkpt lat="43.56041" lon="6.46703">
        <ele>468.65</ele>
        <time>2013-11-01T15:12:43Z</time>
      </trkpt>
      <trkpt lat="43.56044" lon="6.46677">
        <ele>469.36</ele>
        <time>2013-11-01T15:13:03Z</time>
      </trkpt>
      <trkpt lat="43.56041" lon="6.46652">
        <ele>468.83</ele>
        <time>2013-11-01T15:13:23Z</time>
      </trkpt>
      <trkpt lat="43.56038" lon="6.46626">
        <ele>469.68</ele>
        <time>2013-11-01T15:13:43Z</time>
      </trkpt>
      <trkpt lat="43.56038" lon="6.46626">
        <ele>469.68</ele>
        <time>2013-11-01T15:13:43Z</time>
      </trkpt>
      <trkpt lat="43.56043" lon="6.46602">
        <ele>472.31</ele>
        <time>2013-11-01T15:14:13Z</time>
      </trkpt>
      <trkpt lat="43.56041" lon="6.46576">
        <ele>474.4</ele>
        <time>2013-11-01T15:14:39Z</time>
      </trkpt>
      <trkpt lat="43.56037" lon="6.4655">
        <ele>478.57</ele>
        <time>2013-11-01T15:15:11Z</time>
      </trkpt>
      <trkpt lat="43.56033" lon="6.46543">
        <ele>480.18</ele>
        <time>2013-11-01T15:15:47Z</time>
      </trkpt>
      <trkpt lat="43.56035" lon="6.46545">
        <ele>480.47</ele>
        <time>2013-11-01T15:16:13Z</time>
      </trkpt>
      <trkpt lat="43.56036" lon="6.46546">
        <ele>481.14</ele>
        <time>2013-11-01T15:16:37Z</time>
      </trkpt>
      <trkpt lat="43.56036" lon="6.46546">
        <ele>481.14</ele>
        <time>2013-11-01T15:16:37Z</time>
      </trkpt>
      <trkpt lat="43.56029" lon="6.46546">
        <ele>482.9</ele>
        <time>2013-11-01T15:17:17Z</time>
      </trkpt>
      <trkpt lat="43.56014" lon="6.46564">
        <ele>483.22</ele>
        <time>2013-11-01T15:18:33Z</time>
      </trkpt>
      <trkpt lat="43.55999" lon="6.46581">
        <ele>482.57</ele>
        <time>2013-11-01T15:18:57Z</time>
      </trkpt>
      <trkpt lat="43.55986" lon="6.46601">
        <ele>483.4</ele>
        <time>2013-11-01T15:19:15Z</time>
      </trkpt>
      <trkpt lat="43.55969" lon="6.46615">
        <ele>483.37</ele>
        <time>2013-11-01T15:19:35Z</time>
      </trkpt>
      <trkpt lat="43.55969" lon="6.46615">
        <ele>483.37</ele>
        <time>2013-11-01T15:19:35Z</time>
      </trkpt>
      <trkpt lat="43.55949" lon="6.46621">
        <ele>484.88</ele>
        <time>2013-11-01T15:19:51Z</time>
      </trkpt>
      <trkpt lat="43.55934" lon="6.46635">
        <ele>486.14</ele>
        <time>2013-11-01T15:20:15Z</time>
      </trkpt>
      <trkpt lat="43.55915" lon="6.46636">
        <ele>486.17</ele>
        <time>2013-11-01T15:20:45Z</time>
      </trkpt>
      <trkpt lat="43.55897" lon="6.46642">
        <ele>487.61</ele>
        <time>2013-11-01T15:21:01Z</time>
      </trkpt>
      <trkpt lat="43.55877" lon="6.46646">
        <ele>489.37</ele>
        <time>2013-11-01T15:21:17Z</time>
      </trkpt>
      <trkpt lat="43.5586" lon="6.46653">
        <ele>490.68</ele>
        <time>2013-11-01T15:21:37Z</time>
      </trkpt>
      <trkpt lat="43.55842" lon="6.46657">
        <ele>491.62</ele>
        <time>2013-11-01T15:21:51Z</time>
      </trkpt>
      <trkpt lat="43.55823" lon="6.46661">
        <ele>493.96</ele>
        <time>2013-11-01T15:22:07Z</time>
      </trkpt>
      <trkpt lat="43.55804" lon="6.46668">
        <ele>495.46</ele>
        <time>2013-11-01T15:22:27Z</time>
      </trkpt>
      <trkpt lat="43.55785" lon="6.46674">
        <ele>496.62</ele>
        <time>2013-11-01T15:22:47Z</time>
      </trkpt>
      <trkpt lat="43.55785" lon="6.46674">
        <ele>496.62</ele>
        <time>2013-11-01T15:22:47Z</time>
      </trkpt>
      <trkpt lat="43.55766" lon="6.46678">
        <ele>498.02</ele>
        <time>2013-11-01T15:23:07Z</time>
      </trkpt>
      <trkpt lat="43.55747" lon="6.46677">
        <ele>499.12</ele>
        <time>2013-11-01T15:23:23Z</time>
      </trkpt>
      <trkpt lat="43.55729" lon="6.46672">
        <ele>500.74</ele>
        <time>2013-11-01T15:23:43Z</time>
      </trkpt>
      <trkpt lat="43.55712" lon="6.46658">
        <ele>501.91</ele>
        <time>2013-11-01T15:24:03Z</time>
      </trkpt>
      <trkpt lat="43.55705" lon="6.46635">
        <ele>502.13</ele>
        <time>2013-11-01T15:24:25Z</time>
      </trkpt>
      <trkpt lat="43.55702" lon="6.4661">
        <ele>503.06</ele>
        <time>2013-11-01T15:24:55Z</time>
      </trkpt>
      <trkpt lat="43.55686" lon="6.46594">
        <ele>503.02</ele>
        <time>2013-11-01T15:25:15Z</time>
      </trkpt>
      <trkpt lat="43.55686" lon="6.46594">
        <ele>503.02</ele>
        <time>2013-11-01T15:25:15Z</time>
      </trkpt>
    </trkseg>
  </trk>
</gpx>